Time;durP1;ratioP1;P1;durP2;ratioP2;P2;SDS_P1;SDS_P2;PMS_P1;PMS_P2;Temp;Humidity;BMP_temperature;BMP_pressure;BME280_temperature;BME280_humidity;BME280_pressure;Samples;Min_cycle;Max_cycle;Signal;HPM_P1;HPM_P2
2022/08/25 00:01:29;;;;;;;1.85;1.20;;;;;;;24.88;39.78;97306.31;4996859;27;20185;-73
2022/08/25 00:03:55;;;;;;;1.95;1.42;;;;;;;24.79;40.00;97309.09;5035009;27;20231;-73
2022/08/25 00:06:20;;;;;;;2.10;1.67;;;;;;;24.64;40.53;97307.09;5032604;27;20262;-74
2022/08/25 00:08:47;;;;;;;2.13;1.20;;;;;;;24.56;40.68;97300.03;5033599;27;20277;-74
2022/08/25 00:11:15;;;;;;;1.83;1.60;;;;;;;24.42;40.76;97303.75;5030993;27;20707;-73
2022/08/25 00:13:43;;;;;;;1.35;1.25;;;;;;;24.37;41.63;97301.31;5028587;27;20173;-73
2022/08/25 00:16:10;;;;;;;2.03;1.35;;;;;;;24.39;42.36;97299.09;5025321;27;20260;-73
2022/08/25 00:18:36;;;;;;;1.85;1.30;;;;;;;24.40;42.32;97313.16;5011444;27;20698;-74
2022/08/25 00:21:05;;;;;;;1.50;1.40;;;;;;;24.38;42.69;97300.19;5028494;27;20351;-74
2022/08/25 00:23:31;;;;;;;1.58;1.48;;;;;;;24.43;42.38;97305.28;5011697;27;20269;-73
2022/08/25 00:25:56;;;;;;;1.85;1.45;;;;;;;24.42;42.74;97295.78;5010573;27;20200;-73
2022/08/25 00:28:22;;;;;;;1.65;1.30;;;;;;;24.44;42.99;97301.53;5045946;27;20598;-73
2022/08/25 00:30:48;;;;;;;2.15;1.65;;;;;;;24.46;42.91;97301.97;5011722;27;20210;-73
2022/08/25 00:33:14;;;;;;;2.05;1.20;;;;;;;24.47;42.61;97300.06;5046771;27;20203;-73
2022/08/25 00:35:41;;;;;;;1.73;1.60;;;;;;;24.42;43.19;97301.09;5037800;27;20204;-73
2022/08/25 00:38:08;;;;;;;1.52;1.42;;;;;;;24.43;43.39;97302.63;5027702;27;20189;-73
2022/08/25 00:40:34;;;;;;;2.10;1.60;;;;;;;24.43;43.39;97301.88;5028552;27;20161;-74
2022/08/25 00:42:59;;;;;;;2.50;1.70;;;;;;;24.43;43.39;97293.88;5011919;27;20273;-73
2022/08/25 00:45:25;;;;;;;1.63;1.45;;;;;;;24.41;43.56;97296.88;5011148;27;20618;-73
2022/08/25 00:47:51;;;;;;;1.67;1.45;;;;;;;24.41;43.61;97296.88;5011244;27;20247;-73
2022/08/25 00:50:16;;;;;;;1.48;1.38;;;;;;;24.40;43.33;97298.00;5011608;27;20657;-74
2022/08/25 00:52:53;;;;;;;2.38;1.30;;;;;;;24.20;43.45;97288.22;5004770;28;20676;-74
2022/08/25 00:55:23;;;;;;;1.55;1.45;;;;;;;24.26;43.46;97298.28;5012879;27;20234;-74
2022/08/25 00:57:53;;;;;;;2.03;1.80;;;;;;;24.22;43.48;97307.28;5027995;27;20603;-74
2022/08/25 01:00:26;;;;;;;2.25;1.48;;;;;;;24.12;43.45;97303.91;5007020;28;20688;-73
2022/08/25 01:02:52;;;;;;;1.67;1.58;;;;;;;24.17;43.70;97308.25;5008030;28;20693;-73
2022/08/25 01:05:18;;;;;;;2.03;1.27;;;;;;;24.14;43.83;97305.50;5001864;27;20273;-73
2022/08/25 01:07:43;;;;;;;1.83;1.40;;;;;;;24.05;43.47;97306.34;4990945;28;20297;-73
2022/08/25 01:10:09;;;;;;;3.25;1.70;;;;;;;24.02;44.01;97311.56;5008021;28;20189;-73
2022/08/25 01:12:36;;;;;;;2.08;1.73;;;;;;;23.93;43.86;97311.66;5008123;28;20556;-73
2022/08/25 01:15:04;;;;;;;1.95;1.60;;;;;;;23.87;44.00;97312.94;5029412;27;20248;-74
2022/08/25 01:17:49;;;;;;;2.15;1.50;;;;;;;23.67;44.60;97312.63;5010978;27;20699;-73
2022/08/25 01:20:15;;;;;;;3.10;1.95;;;;;;;23.53;44.59;97315.56;5011009;27;20646;-75
2022/08/25 01:22:41;;;;;;;2.47;1.90;;;;;;;23.40;44.67;97316.59;5010948;27;20177;-76
2022/08/25 01:25:21;;;;;;;2.35;1.65;;;;;;;23.05;45.44;97310.72;5026810;27;20182;-76
2022/08/25 01:27:47;;;;;;;2.67;1.80;;;;;;;23.27;45.00;97309.66;5010579;27;20261;-75
2022/08/25 01:30:13;;;;;;;2.03;1.83;;;;;;;23.22;45.54;97308.00;5027888;27;20333;-75
2022/08/25 01:32:39;;;;;;;2.45;1.80;;;;;;;23.07;45.45;97311.22;5027245;27;20184;-75
2022/08/25 01:35:04;;;;;;;2.63;1.83;;;;;;;22.89;46.18;97308.63;5011966;28;20209;-75
2022/08/25 01:37:33;;;;;;;2.20;2.10;;;;;;;22.87;46.43;97312.72;5006989;28;20567;-75
2022/08/25 01:39:58;;;;;;;2.45;1.77;;;;;;;22.87;47.08;97320.69;5007473;28;20659;-75
2022/08/25 01:42:47;;;;;;;2.47;2.28;;;;;;;22.59;47.89;97310.53;4993929;27;20329;-75
2022/08/25 01:45:12;;;;;;;2.35;2.10;;;;;;;22.75;47.42;97314.19;5010654;28;20251;-76
2022/08/25 01:47:38;;;;;;;2.15;1.75;;;;;;;22.68;47.33;97313.91;5006714;28;20193;-75
2022/08/25 01:50:05;;;;;;;2.38;2.17;;;;;;;22.55;47.31;97309.59;5007175;28;20242;-75
2022/08/25 01:52:55;;;;;;;2.30;1.88;;;;;;;22.47;47.09;97311.19;4973946;28;20290;-75
2022/08/25 01:55:21;;;;;;;2.22;2.03;;;;;;;22.70;46.57;97319.66;5045316;27;20209;-75
2022/08/25 01:57:46;;;;;;;1.90;1.80;;;;;;;22.72;46.62;97314.03;5010070;27;20532;-76
2022/08/25 02:00:13;;;;;;;2.08;1.98;;;;;;;22.74;46.82;97317.94;5041913;27;20682;-75
2022/08/25 02:02:41;;;;;;;2.00;1.67;;;;;;;22.81;47.02;97322.75;5007703;27;20337;-76
2022/08/25 02:05:07;;;;;;;1.90;1.80;;;;;;;22.77;47.59;97319.16;4990534;28;20170;-75
2022/08/25 02:07:33;;;;;;;2.00;1.80;;;;;;;22.74;47.65;97320.59;5006591;28;20275;-75
2022/08/25 02:10:03;;;;;;;2.42;1.90;;;;;;;22.70;47.20;97319.66;4990666;28;20250;-76
2022/08/25 02:12:30;;;;;;;3.22;1.70;;;;;;;22.62;47.82;97315.19;5025238;28;20186;-75
2022/08/25 02:14:57;;;;;;;2.40;1.80;;;;;;;22.63;47.52;97314.09;4989516;28;20339;-75
2022/08/25 02:17:22;;;;;;;2.13;1.92;;;;;;;22.71;47.78;97315.16;5006358;28;20145;-75
2022/08/25 02:19:48;;;;;;;2.60;2.30;;;;;;;22.69;47.88;97309.38;5006773;28;20767;-76
2022/08/25 02:22:14;;;;;;;6.88;2.40;;;;;;;22.69;47.97;97306.72;5025306;28;20209;-75
2022/08/25 02:24:39;;;;;;;2.63;1.80;;;;;;;22.70;48.09;97305.63;5006874;28;20217;-76
2022/08/25 02:27:05;;;;;;;2.38;1.85;;;;;;;22.65;48.07;97303.91;5006574;28;20278;-75
2022/08/25 02:29:30;;;;;;;1.92;1.80;;;;;;;22.60;48.07;97299.59;5006353;28;20264;-75
2022/08/25 02:31:56;;;;;;;2.05;1.85;;;;;;;22.56;48.44;97305.84;5045484;28;20740;-75
2022/08/25 02:34:22;;;;;;;2.53;2.33;;;;;;;22.55;48.61;97301.63;5010140;28;20333;-76
2022/08/25 02:36:47;;;;;;;2.17;1.92;;;;;;;22.54;48.54;97298.19;5006658;28;20208;-76
2022/08/25 02:39:12;;;;;;;3.50;2.13;;;;;;;22.53;48.90;97301.94;5006288;28;20174;-76
2022/08/25 02:41:38;;;;;;;2.45;2.25;;;;;;;22.52;48.93;97296.97;4990107;28;20265;-75
2022/08/25 02:44:04;;;;;;;2.40;2.20;;;;;;;22.50;49.06;97297.28;5007946;27;20669;-76
2022/08/25 02:46:30;;;;;;;2.30;2.10;;;;;;;22.50;48.57;97294.66;4977333;28;20189;-76
2022/08/25 02:48:56;;;;;;;2.70;2.00;;;;;;;22.40;48.82;97287.03;4993293;28;20266;-75
2022/08/25 02:51:23;;;;;;;2.30;2.05;;;;;;;22.31;48.50;97288.94;4993899;28;20305;-75
2022/08/25 02:53:48;;;;;;;2.60;2.25;;;;;;;22.18;48.98;97288.78;5002236;28;20258;-76
2022/08/25 02:56:17;;;;;;;2.40;2.20;;;;;;;22.07;49.34;97285.72;5010545;28;20715;-76
2022/08/25 02:58:43;;;;;;;3.95;2.15;;;;;;;22.15;49.29;97289.41;5010226;28;20281;-75
2022/08/25 03:01:10;;;;;;;2.60;2.40;;;;;;;22.15;49.21;97286.00;5010533;28;20276;-76
2022/08/25 03:03:39;;;;;;;2.28;2.08;;;;;;;22.16;49.19;97285.69;5010308;28;20815;-75
2022/08/25 03:06:08;;;;;;;3.08;2.20;;;;;;;22.14;49.62;97287.88;4993947;28;20158;-76
2022/08/25 03:08:34;;;;;;;2.40;2.13;;;;;;;22.14;49.56;97287.09;5009959;28;20205;-74
2022/08/25 03:11:00;;;;;;;2.22;1.75;;;;;;;22.13;49.45;97293.50;5028803;28;20208;-75
2022/08/25 03:13:25;;;;;;;3.45;2.00;;;;;;;22.11;49.81;97291.16;5018333;27;20238;-76
2022/08/25 03:15:51;;;;;;;2.17;1.98;;;;;;;22.11;49.52;97290.38;5030049;27;20178;-75
2022/08/25 03:18:16;;;;;;;2.08;1.75;;;;;;;22.14;49.83;97289.72;5013313;27;20299;-75
2022/08/25 03:20:41;;;;;;;2.35;2.17;;;;;;;22.11;49.85;97291.16;5007862;28;20245;-75
2022/08/25 03:23:07;;;;;;;3.00;2.30;;;;;;;22.05;49.97;97279.94;5010020;28;20155;-75
2022/08/25 03:28:18;;;;;;;3.90;2.85;;;;;;;21.89;50.57;97274.34;5012448;28;20656;-75
2022/08/25 03:30:43;;;;;;;3.13;2.40;;;;;;;21.90;50.31;97264.56;5012876;27;20247;-75
2022/08/25 03:33:08;;;;;;;2.42;2.05;;;;;;;21.82;50.06;97268.78;5011681;27;20151;-76
2022/08/25 03:35:34;;;;;;;3.10;2.00;;;;;;;21.73;50.55;97264.56;5029834;27;20238;-75
2022/08/25 03:37:59;;;;;;;2.35;2.15;;;;;;;21.62;50.35;97275.50;5011402;28;20346;-75
2022/08/25 03:40:26;;;;;;;2.53;2.33;;;;;;;21.63;50.39;97286.91;5010349;28;20653;-76
2022/08/25 03:42:51;;;;;;;2.92;2.58;;;;;;;21.66;50.27;97278.28;4974660;28;20210;-75
2022/08/25 03:45:17;;;;;;;2.05;1.92;;;;;;;21.66;50.45;97287.03;5025072;28;20705;-76
2022/08/25 03:47:46;;;;;;;3.08;2.28;;;;;;;21.54;50.54;97283.44;5007628;28;20284;-76
2022/08/25 03:50:13;;;;;;;2.28;2.10;;;;;;;21.61;51.18;97284.56;5008160;28;20632;-75
2022/08/25 03:52:38;;;;;;;2.75;2.53;;;;;;;21.59;51.72;97284.09;5008761;28;20204;-75
2022/08/25 03:55:07;;;;;;;2.30;2.10;;;;;;;21.49;52.07;97282.53;5011725;28;20646;-75
2022/08/25 03:57:32;;;;;;;2.63;2.42;;;;;;;21.56;52.32;97278.63;5008112;28;20163;-75
2022/08/25 03:59:57;;;;;;;2.20;2.00;;;;;;;21.52;52.45;97281.13;5008108;28;20251;-76
2022/08/25 04:02:23;;;;;;;2.30;2.10;;;;;;;21.53;52.52;97287.22;5003676;28;20743;-76
2022/08/25 04:04:49;;;;;;;3.42;2.17;;;;;;;21.53;52.73;97293.28;5018210;28;20612;-75
2022/08/25 04:07:14;;;;;;;2.58;2.38;;;;;;;21.46;53.18;97288.44;5010204;28;20275;-75
2022/08/25 04:09:40;;;;;;;3.00;2.35;;;;;;;21.47;53.01;97290.03;5028440;28;20680;-75
2022/08/25 04:12:05;;;;;;;2.83;2.20;;;;;;;21.45;53.19;97281.56;4990071;28;20300;-75
2022/08/25 04:14:31;;;;;;;2.42;2.22;;;;;;;21.47;52.97;97284.72;5007404;28;20262;-76
2022/08/25 04:16:59;;;;;;;2.60;2.40;;;;;;;21.53;52.83;97289.88;5024460;28;20189;-76
2022/08/25 04:19:25;;;;;;;2.85;2.50;;;;;;;21.49;52.98;97287.84;5008110;28;20575;-76
2022/08/25 04:21:50;;;;;;;3.90;2.50;;;;;;;21.40;53.00;97275.66;5006460;28;20666;-75
2022/08/25 04:24:16;;;;;;;3.97;2.40;;;;;;;21.36;53.18;97280.78;5010597;28;20215;-76
2022/08/25 04:26:48;;;;;;;2.13;1.92;;;;;;;21.26;52.96;97279.22;4994396;28;20292;-75
2022/08/25 04:29:15;;;;;;;2.63;2.40;;;;;;;21.28;52.98;97284.22;5022322;28;20327;-75
2022/08/25 04:31:45;;;;;;;2.90;2.40;;;;;;;21.22;53.26;97283.59;5016876;28;20249;-76
2022/08/25 04:34:11;;;;;;;2.35;2.17;;;;;;;21.26;53.49;97284.53;4990325;28;20301;-75
2022/08/25 04:36:37;;;;;;;2.47;2.15;;;;;;;21.28;53.53;97285.00;4967980;27;1260709;-75
2022/08/25 04:39:05;;;;;;;3.58;2.60;;;;;;;21.32;53.43;97293.09;5047786;27;20244;-74
2022/08/25 04:41:30;;;;;;;2.47;2.28;;;;;;;21.34;53.30;97288.28;5020047;28;20243;-75
2022/08/25 04:43:58;;;;;;;2.53;2.30;;;;;;;21.32;53.00;97291.22;5008933;27;20198;-75
2022/08/25 04:46:27;;;;;;;3.10;2.50;;;;;;;21.33;53.23;97295.44;5007970;28;20197;-75
2022/08/25 04:48:54;;;;;;;2.17;1.98;;;;;;;21.38;53.73;97294.50;4991390;28;20279;-75
2022/08/25 04:51:26;;;;;;;4.78;2.25;;;;;;;21.26;53.86;97299.63;5006107;28;20603;-74
2022/08/25 04:53:53;;;;;;;2.80;2.60;;;;;;;21.31;53.75;97291.53;5008887;28;20189;-75
2022/08/25 04:56:20;;;;;;;2.75;2.20;;;;;;;21.21;53.51;97284.66;5010846;27;20276;-75
2022/08/25 04:58:46;;;;;;;2.60;2.40;;;;;;;21.22;53.37;97283.59;5011513;27;20205;-75
2022/08/25 05:01:14;;;;;;;2.50;2.25;;;;;;;21.05;53.85;97276.41;5022307;28;20175;-75
2022/08/25 05:03:40;;;;;;;2.83;2.53;;;;;;;21.06;53.96;97277.19;4991159;27;20346;-75
2022/08/25 05:06:05;;;;;;;3.30;2.47;;;;;;;21.04;54.06;97271.41;5006424;28;20348;-75
2022/08/25 05:08:31;;;;;;;2.58;2.33;;;;;;;21.07;53.78;97276.88;5006875;28;20162;-75
2022/08/25 05:10:57;;;;;;;2.60;1.95;;;;;;;21.11;53.55;97272.53;5007536;28;20291;-74
2022/08/25 05:13:23;;;;;;;3.47;2.80;;;;;;;21.14;53.43;97271.88;5007023;28;20315;-75
2022/08/25 05:15:57;;;;;;;2.60;2.38;;;;;;;21.08;53.82;97281.09;5011745;27;20337;-75
2022/08/25 05:18:24;;;;;;;3.17;2.88;;;;;;;21.30;53.83;97284.66;5046040;27;20256;-75
2022/08/25 05:20:52;;;;;;;2.72;2.40;;;;;;;21.40;53.68;97287.00;5010623;27;20711;-75
2022/08/25 05:23:19;;;;;;;3.40;2.55;;;;;;;21.51;53.90;97292.81;5010771;27;20188;-75
2022/08/25 05:25:45;;;;;;;2.97;2.65;;;;;;;21.59;54.34;97286.75;5007223;27;20127;-75
2022/08/25 05:28:10;;;;;;;4.05;3.05;;;;;;;21.69;54.04;97280.31;5026047;27;20595;-75
2022/08/25 05:30:40;;;;;;;3.28;2.60;;;;;;;21.65;53.75;97280.19;5011102;27;20743;-75
2022/08/25 05:33:07;;;;;;;3.30;3.00;;;;;;;21.81;53.51;97267.19;5040381;27;20767;-75
2022/08/25 05:35:32;;;;;;;2.70;2.50;;;;;;;21.94;52.76;97270.00;5026956;27;20269;-75
2022/08/25 05:37:58;;;;;;;3.13;2.83;;;;;;;22.00;53.08;97268.72;4991881;28;20295;-75
2022/08/25 05:40:23;;;;;;;3.50;2.67;;;;;;;22.06;52.50;97267.47;4987002;28;20533;-75
2022/08/25 05:42:49;;;;;;;3.53;2.92;;;;;;;22.11;52.76;97267.28;5006858;28;20178;-75
2022/08/25 05:45:16;;;;;;;3.15;2.60;;;;;;;22.14;52.94;97263.22;5015071;28;20720;-74
2022/08/25 05:47:42;;;;;;;4.38;2.80;;;;;;;22.16;53.05;97264.47;5008069;28;20654;-74
2022/08/25 05:50:08;;;;;;;3.90;3.13;;;;;;;22.22;53.03;97263.19;4984020;28;20159;-75
2022/08/25 05:52:33;;;;;;;3.60;3.30;;;;;;;22.20;53.09;97267.25;4991118;28;20195;-76
2022/08/25 05:54:59;;;;;;;3.65;3.17;;;;;;;22.21;52.97;97253.69;5026173;28;20320;-75
2022/08/25 05:57:24;;;;;;;3.85;2.88;;;;;;;22.33;52.82;97261.00;4999240;28;20285;-74
2022/08/25 05:59:50;;;;;;;4.40;2.70;;;;;;;22.44;52.37;97256.88;4974177;28;20278;-74
2022/08/25 06:04:59;;;;;;;3.80;3.30;;;;;;;22.66;52.15;97257.72;5010205;28;20200;-74
2022/08/25 06:07:24;;;;;;;3.25;2.92;;;;;;;22.83;52.09;97251.53;5041461;27;20239;-75
2022/08/25 06:09:50;;;;;;;3.92;3.05;;;;;;;22.96;51.77;97247.84;5020564;27;20201;-75
2022/08/25 06:12:16;;;;;;;3.25;2.72;;;;;;;23.05;51.56;97239.03;4990627;28;20244;-75
2022/08/25 06:14:41;;;;;;;3.70;3.20;;;;;;;23.15;51.02;97241.31;5025976;28;20159;-75
2022/08/25 06:17:07;;;;;;;3.60;2.60;;;;;;;23.24;50.89;97247.34;5007042;28;20193;-75
2022/08/25 06:19:33;;;;;;;3.60;2.90;;;;;;;23.30;50.92;97246.03;5007615;28;20705;-75
2022/08/25 06:21:58;;;;;;;3.40;3.05;;;;;;;23.45;50.77;97249.22;5004754;28;20282;-74
2022/08/25 06:24:25;;;;;;;3.40;2.80;;;;;;;23.49;50.37;97244.78;5007321;28;20280;-75
2022/08/25 06:26:50;;;;;;;3.28;2.95;;;;;;;23.62;50.30;97237.63;4989143;28;20182;-74
2022/08/25 06:29:16;;;;;;;3.33;2.97;;;;;;;23.75;49.97;97229.38;4983848;28;20197;-75
2022/08/25 06:31:42;;;;;;;3.85;2.92;;;;;;;23.79;50.02;97231.38;5025037;28;20197;-75
2022/08/25 06:34:08;;;;;;;3.20;2.90;;;;;;;23.95;49.77;97239.50;4995914;28;20629;-75
2022/08/25 06:36:33;;;;;;;3.35;3.05;;;;;;;24.08;49.27;97225.91;4993373;28;20252;-75
2022/08/25 06:38:58;;;;;;;5.32;3.28;;;;;;;24.16;48.99;97234.88;5009397;28;20229;-75
2022/08/25 06:41:24;;;;;;;4.60;3.22;;;;;;;24.21;49.02;97231.22;5008859;28;20178;-75
2022/08/25 06:43:50;;;;;;;4.90;3.60;;;;;;;24.33;48.62;97223.22;5010168;27;20331;-76
2022/08/25 06:46:21;;;;;;;4.43;3.47;;;;;;;24.32;49.02;97221.69;4999246;28;20166;-75
2022/08/25 06:48:47;;;;;;;4.15;3.20;;;;;;;24.85;48.34;97217.22;5034658;28;20184;-74
2022/08/25 06:51:15;;;;;;;5.82;4.88;;;;;;;24.99;47.40;97221.41;5032336;28;20193;-75
2022/08/25 06:53:41;;;;;;;3.65;3.28;;;;;;;25.03;47.38;97217.72;5017204;28;20195;-75
2022/08/25 06:56:07;;;;;;;3.63;3.30;;;;;;;25.32;46.77;97220.44;5001372;28;20207;-75
2022/08/25 06:58:33;;;;;;;4.80;4.05;;;;;;;25.38;46.88;97216.41;5015836;28;20592;-75
2022/08/25 07:01:20;;;;;;;3.85;3.42;;;;;;;25.29;46.52;97213.09;5033070;28;20264;-75
2022/08/25 07:03:47;;;;;;;5.65;3.40;;;;;;;25.80;45.73;97221.28;5035409;28;20240;-75
2022/08/25 07:06:12;;;;;;;5.50;3.70;;;;;;;26.10;45.44;97223.56;5014519;28;20205;-75
2022/08/25 07:08:38;;;;;;;5.63;3.65;;;;;;;26.00;44.94;97222.19;5000945;28;20168;-75
2022/08/25 07:11:08;;;;;;;4.15;3.13;;;;;;;26.12;44.93;97221.31;5010303;28;20616;-75
2022/08/25 07:13:35;;;;;;;6.75;3.70;;;;;;;26.36;44.08;97225.69;5015811;28;20230;-75
2022/08/25 07:16:00;;;;;;;3.33;3.03;;;;;;;26.55;43.72;97224.97;5010173;28;20266;-75
2022/08/25 07:18:26;;;;;;;3.58;3.28;;;;;;;26.79;43.23;97233.91;5009910;28;20291;-75
2022/08/25 07:20:52;;;;;;;4.30;3.60;;;;;;;27.15;43.11;97237.31;4993416;28;20276;-75
2022/08/25 07:23:19;;;;;;;3.83;3.25;;;;;;;27.27;42.76;97234.50;5016735;28;20275;-75
2022/08/25 07:25:44;;;;;;;5.03;3.53;;;;;;;27.31;42.77;97235.34;5017494;28;20319;-74
2022/08/25 07:28:10;;;;;;;3.78;3.40;;;;;;;27.40;42.20;97235.13;5003210;28;20287;-75
2022/08/25 07:30:36;;;;;;;4.75;3.28;;;;;;;27.67;41.86;97224.53;4975956;28;20203;-75
2022/08/25 07:33:01;;;;;;;4.00;3.63;;;;;;;28.01;41.35;97234.31;4993476;27;20181;-75
2022/08/25 07:35:27;;;;;;;10.13;3.40;;;;;;;28.38;40.65;97227.63;5006878;28;20189;-75
2022/08/25 07:37:56;;;;;;;4.13;3.72;;;;;;;28.47;40.63;97235.41;4999146;27;20646;-75
2022/08/25 07:40:35;;;;;;;3.90;3.50;;;;;;;28.39;40.18;97235.31;4997158;27;20345;-74
2022/08/25 07:43:04;;;;;;;5.20;3.60;;;;;;;28.86;39.48;97238.66;5013228;27;20637;-75
2022/08/25 07:45:32;;;;;;;3.38;3.08;;;;;;;29.19;39.24;97229.13;5010082;28;20659;-75
2022/08/25 07:48:18;;;;;;;3.65;3.33;;;;;;;28.80;39.53;97229.38;5009377;28;20276;-74
2022/08/25 07:50:44;;;;;;;3.45;3.00;;;;;;;29.26;38.79;97234.56;4993672;28;20166;-75
2022/08/25 07:53:11;;;;;;;3.70;3.40;;;;;;;29.17;38.71;97236.75;4976536;28;20181;-75
2022/08/25 07:55:37;;;;;;;3.25;3.03;;;;;;;28.92;39.53;97237.19;5028555;28;20188;-75
2022/08/25 07:58:05;;;;;;;3.65;3.33;;;;;;;29.07;39.51;97238.13;4993026;28;20201;-75
2022/08/25 08:00:32;;;;;;;5.50;3.45;;;;;;;29.03;39.44;97241.91;4976455;28;20241;-75
2022/08/25 08:02:58;;;;;;;3.88;3.58;;;;;;;29.46;38.77;97242.44;4993402;28;20276;-75
2022/08/25 08:05:24;;;;;;;4.22;3.83;;;;;;;29.79;38.09;97247.00;5009643;28;20205;-75
2022/08/25 08:07:51;;;;;;;3.92;3.60;;;;;;;29.78;37.90;97247.38;4992665;28;20189;-75
2022/08/25 08:10:17;;;;;;;3.85;3.45;;;;;;;30.17;37.45;97253.06;5009799;28;20664;-75
2022/08/25 08:12:42;;;;;;;3.42;3.13;;;;;;;30.26;36.96;97247.38;4992893;28;20193;-75
2022/08/25 08:15:08;;;;;;;3.42;3.13;;;;;;;30.35;36.82;97250.56;5028159;28;20287;-75
2022/08/25 08:17:34;;;;;;;3.53;3.22;;;;;;;30.31;36.71;97252.41;4992361;28;20200;-75
2022/08/25 08:20:00;;;;;;;3.42;3.15;;;;;;;30.30;37.11;97250.88;4992664;28;20266;-75
2022/08/25 08:22:26;;;;;;;4.03;3.53;;;;;;;30.87;35.97;97247.78;4992491;28;20303;-75
2022/08/25 08:24:51;;;;;;;3.35;3.15;;;;;;;30.71;35.70;97241.94;5009409;28;20248;-75
2022/08/25 08:27:17;;;;;;;3.85;3.45;;;;;;;31.05;35.27;97247.91;4993353;27;20201;-75
2022/08/25 08:29:42;;;;;;;3.28;2.97;;;;;;;30.90;36.16;97244.34;5009526;27;20261;-75
2022/08/25 08:32:12;;;;;;;3.22;2.92;;;;;;;31.37;34.74;97245.31;5012215;27;20517;-75
2022/08/25 08:34:39;;;;;;;3.17;2.85;;;;;;;31.69;33.09;97239.25;5029115;27;20257;-75
2022/08/25 08:37:05;;;;;;;3.22;3.03;;;;;;;31.62;33.66;97233.88;5028917;27;20710;-75
2022/08/25 08:39:30;;;;;;;3.65;3.33;;;;;;;31.89;33.20;97238.88;5028819;27;20305;-75
2022/08/25 08:42:17;;;;;;;4.05;3.65;;;;;;;31.80;33.12;97241.19;5027927;27;20305;-75
2022/08/25 08:44:46;;;;;;;3.30;3.10;;;;;;;32.20;32.75;97248.16;5029044;27;20158;-75
2022/08/25 08:47:30;;;;;;;3.47;2.95;;;;;;;32.14;32.23;97238.16;5027992;27;20180;-75
2022/08/25 08:49:59;;;;;;;4.30;3.17;;;;;;;32.06;32.54;97234.69;5045173;27;20630;-75
2022/08/25 08:52:45;;;;;;;3.70;3.40;;;;;;;31.61;33.18;97229.63;5047380;27;20360;-75
2022/08/25 08:55:32;;;;;;;3.72;3.47;;;;;;;31.53;34.01;97233.47;5028889;27;20273;-75
2022/08/25 08:58:00;;;;;;;3.22;3.03;;;;;;;32.18;33.38;97233.53;5028268;27;20285;-75
2022/08/25 09:00:26;;;;;;;3.72;3.40;;;;;;;32.21;32.91;97230.84;5028879;27;20626;-75
2022/08/25 09:03:05;;;;;;;3.30;3.00;;;;;;;32.60;32.94;97232.72;4994968;27;20179;-75
2022/08/25 09:05:33;;;;;;;3.63;3.33;;;;;;;33.03;31.71;97219.09;5028867;27;20582;-75
2022/08/25 09:08:03;;;;;;;3.35;3.13;;;;;;;33.43;31.34;97212.75;5011440;27;20196;-75
2022/08/25 09:11:07;;;;;;;4.07;3.17;;;;;;;33.17;31.52;97212.13;5028647;27;20268;-75
2022/08/25 09:13:42;;;;;;;4.20;3.17;;;;;;;33.24;31.49;97214.78;4956428;27;20190;-75
2022/08/25 09:19:34;;;;;;;3.70;3.25;;;;;;;33.15;31.04;97203.66;5014149;27;20593;-75
2022/08/25 09:22:05;;;;;;;3.63;3.33;;;;;;;32.49;31.90;97207.69;5047145;27;20225;-75
2022/08/25 09:24:37;;;;;;;4.43;3.38;;;;;;;32.50;32.40;97209.22;5028281;27;20216;-75
2022/08/25 09:27:31;;;;;;;3.35;3.05;;;;;;;32.43;31.09;97214.66;5046600;27;20757;-76
2022/08/25 09:29:57;;;;;;;3.67;3.38;;;;;;;32.51;30.74;97216.19;5046655;27;20250;-75
2022/08/25 09:32:23;;;;;;;3.58;3.28;;;;;;;32.57;30.77;97209.22;5011267;27;20205;-75
2022/08/25 09:34:50;;;;;;;3.70;3.40;;;;;;;32.58;31.11;97205.38;5028456;27;20196;-75
2022/08/25 09:37:16;;;;;;;3.50;3.20;;;;;;;33.02;30.31;97204.09;5010817;27;20280;-75
2022/08/25 09:39:41;;;;;;;3.92;3.47;;;;;;;33.11;30.68;97200.16;5028134;27;20303;-75
2022/08/25 09:42:07;;;;;;;3.15;2.95;;;;;;;33.38;29.10;97206.63;5011465;27;20197;-75
2022/08/25 09:44:42;;;;;;;3.63;3.28;;;;;;;33.10;30.46;97204.03;4988225;28;20190;-75
2022/08/25 09:47:17;;;;;;;3.08;2.88;;;;;;;33.11;30.24;97200.97;5007397;28;20286;-75
2022/08/25 09:49:44;;;;;;;3.13;2.92;;;;;;;33.45;29.21;97205.81;5007650;28;20194;-75
2022/08/25 09:52:31;;;;;;;3.03;2.67;;;;;;;33.90;28.28;97197.03;4974195;28;20623;-75
2022/08/25 09:55:25;;;;;;;3.20;2.90;;;;;;;34.14;28.12;97196.03;5007764;28;20270;-75
2022/08/25 09:57:54;;;;;;;4.38;2.85;;;;;;;34.52;28.01;97187.94;4999234;28;20212;-74
2022/08/25 10:00:33;;;;;;;3.80;3.45;;;;;;;33.99;28.90;97188.47;4991119;28;20564;-74
2022/08/25 10:03:17;;;;;;;3.78;3.47;;;;;;;33.27;29.58;97188.97;4990811;28;20195;-74
2022/08/25 10:05:57;;;;;;;3.57;3.10;;;;;;;33.43;29.32;97189.22;4990869;28;20158;-75
2022/08/25 10:08:37;;;;;;;3.50;3.28;;;;;;;34.14;27.63;97179.81;5025678;28;20190;-75
2022/08/25 10:11:10;;;;;;;3.20;3.00;;;;;;;34.32;27.54;97176.19;5024203;28;20627;-75
2022/08/25 10:13:38;;;;;;;3.38;3.08;;;;;;;34.31;28.11;97177.38;5008039;28;20173;-74
2022/08/25 10:16:23;;;;;;;2.50;2.30;;;;;;;34.87;27.18;97175.22;5007178;28;20272;-75
2022/08/25 10:19:08;;;;;;;3.00;2.75;;;;;;;34.99;26.93;97175.81;4990575;28;20779;-75
2022/08/25 10:21:35;;;;;;;3.55;3.25;;;;;;;35.30;25.97;97162.28;5024228;28;20647;-75
2022/08/25 10:24:01;;;;;;;2.92;2.72;;;;;;;35.62;25.29;97162.56;5024154;28;20623;-75
2022/08/25 10:26:30;;;;;;;2.97;2.78;;;;;;;35.42;25.24;97169.81;5023799;28;20210;-74
2022/08/25 10:29:10;;;;;;;2.70;2.50;;;;;;;34.95;25.14;97164.28;5025677;28;20654;-75
2022/08/25 10:31:57;;;;;;;2.70;2.50;;;;;;;34.23;25.36;97163.16;4991149;28;20170;-75
2022/08/25 10:34:47;;;;;;;3.40;3.10;;;;;;;33.58;27.30;97165.59;5007286;28;20151;-74
2022/08/25 10:37:25;;;;;;;3.30;3.10;;;;;;;34.20;26.67;97163.19;5006775;28;20190;-75
2022/08/25 10:40:00;;;;;;;2.75;2.55;;;;;;;34.26;26.32;97153.50;5006987;28;20175;-74
2022/08/25 10:42:33;;;;;;;2.63;2.47;;;;;;;33.41;26.40;97157.22;5023812;28;20186;-75
2022/08/25 10:48:01;;;;;;;2.30;2.20;;;;;;;34.31;24.64;97147.66;5024986;28;20181;-75
2022/08/25 10:50:28;;;;;;;2.55;2.45;;;;;;;34.57;25.51;97135.38;4989975;28;20205;-75
2022/08/25 10:53:29;;;;;;;3.08;2.88;;;;;;;34.48;26.08;97138.56;5007062;28;20744;-74
2022/08/25 10:56:03;;;;;;;3.28;2.80;;;;;;;34.91;26.17;97141.91;4945272;28;20357;-74
2022/08/25 10:58:47;;;;;;;;;;;;;;;34.60;25.34;97139.19;4937078;28;20274;-75
2022/08/25 11:01:22;;;;;;;3.40;3.00;;;;;;;34.61;25.46;97130.66;4926940;28;20069;-74
2022/08/25 11:03:49;;;;;;;3.08;2.88;;;;;;;34.84;25.55;97123.84;4897429;28;20200;-74
2022/08/25 11:06:25;;;;;;;3.05;2.85;;;;;;;34.43;25.89;97114.69;4931141;28;20337;-75
2022/08/25 11:08:57;;;;;;;3.33;2.95;;;;;;;34.76;25.83;97112.34;4931963;28;20274;-73
2022/08/25 11:11:49;;;;;;;3.20;2.95;;;;;;;35.08;26.22;97113.88;4932475;28;20254;-75
2022/08/25 11:14:18;;;;;;;2.88;2.67;;;;;;;35.57;25.41;97108.84;4948450;28;20184;-74
2022/08/25 11:16:51;;;;;;;3.05;2.85;;;;;;;36.16;24.36;97110.16;4920634;28;20252;-74
2022/08/25 11:19:18;;;;;;;3.20;2.78;;;;;;;36.32;23.16;97111.47;4912207;28;20072;-75
2022/08/25 11:21:51;;;;;;;2.83;2.65;;;;;;;36.49;23.22;97101.44;4944699;28;20257;-74
2022/08/25 11:24:28;;;;;;;2.70;2.50;;;;;;;37.35;22.15;97102.28;4912260;28;20263;-74
2022/08/25 11:26:55;;;;;;;3.22;2.92;;;;;;;37.41;21.83;97105.25;4928009;28;20212;-74
2022/08/25 11:29:24;;;;;;;3.33;3.03;;;;;;;36.91;22.27;97093.56;4916292;28;20209;-74
2022/08/25 11:31:51;;;;;;;3.28;3.08;;;;;;;36.25;23.31;97090.66;5009514;28;20166;-74
2022/08/25 11:34:17;;;;;;;3.88;3.25;;;;;;;35.79;24.03;97087.63;5009436;28;20209;-74
2022/08/25 11:37:20;;;;;;;3.55;3.35;;;;;;;35.40;24.39;97090.97;5027198;27;20149;-75
2022/08/25 11:40:04;;;;;;;3.30;2.95;;;;;;;35.54;24.35;97090.75;5001818;27;20555;-74
2022/08/25 11:42:51;;;;;;;3.45;3.25;;;;;;;35.03;25.15;97081.84;5049790;27;20165;-74
2022/08/25 11:45:31;;;;;;;3.03;2.83;;;;;;;35.24;24.91;97094.31;5037356;27;20607;-75
2022/08/25 11:48:31;;;;;;;3.78;3.08;;;;;;;34.72;25.57;97084.59;5047156;27;20185;-74
2022/08/25 11:51:06;;;;;;;3.13;2.92;;;;;;;34.71;25.93;97088.47;5047906;27;20286;-75
2022/08/25 11:53:41;;;;;;;3.30;3.00;;;;;;;34.52;26.72;97079.78;5029009;27;20178;-74
2022/08/25 11:56:30;;;;;;;3.33;3.13;;;;;;;34.84;26.10;97084.03;5028830;27;20292;-74